Аэропорт: Национальный аэропорт Минск. Минск

ICAO: UMMS

METAR:
2024-04-22 23:00:00
UMMS 222300Z 23005G08MPS 9999 BKN022 04/00 Q1017 NOSIG
TAF:
2024-04-22 18:45:00
TAF AMD UMMS 221845Z 2219/2318 22005G10MPS 7000 BKN010 TX08/2312Z TNM01/2304Z 
  TEMPO 2219/2307 22010G15MPS 3000 -SHRASN FEW003 BKN010CB 
  TEMPO 2307/2318 4000 -SHRA FEW007 BKN012CB